Time;durP1;ratioP1;P1;durP2;ratioP2;P2;SDS_P1;SDS_P2;PMS_P1;PMS_P2;Temp;Humidity;BMP_temperature;BMP_pressure;BME280_temperature;BME280_humidity;BME280_pressure;Samples;Min_cycle;Max_cycle;Signal;HPM_P1;HPM_P2
2024/04/06 00:01:18;;;;;;;0.00;0.00;;;;;;;;;;6303474;22;20014;-92
2024/04/06 00:03:44;;;;;;;0.00;0.00;;;;;;;;;;6303479;22;19999;-91
2024/04/06 00:06:10;;;;;;;0.00;0.00;;;;;;;;;;6302499;22;20000;-91
2024/04/06 00:08:36;;;;;;;0.00;0.00;;;;;;;;;;6303659;22;20129;-91
2024/04/06 00:13:40;;;;;;;0.00;0.00;;;;;;;;;;6300188;22;20094;-89
2024/04/06 00:16:06;;;;;;;0.00;0.00;;;;;;;;;;6269146;22;20068;-89
2024/04/06 00:18:35;;;;;;;0.00;0.00;;;;;;;;;;6270633;22;20343;-89
2024/04/06 00:21:02;;;;;;;0.00;0.00;;;;;;;;;;6273923;22;19991;-90
2024/04/06 00:23:28;;;;;;;0.00;0.00;;;;;;;;;;6292398;22;20015;-92
2024/04/06 00:25:57;;;;;;;0.00;0.00;;;;;;;;;;6295204;22;20059;-92
2024/04/06 00:28:25;;;;;;;0.00;0.00;;;;;;;;;;6295796;22;20007;-91
2024/04/06 00:30:51;;;;;;;0.00;0.00;;;;;;;;;;6295789;22;20003;-91
2024/04/06 00:33:17;;;;;;;0.00;0.00;;;;;;;;;;6295848;22;20020;-91
2024/04/06 00:35:44;;;;;;;0.00;0.00;;;;;;;;;;6294466;22;20003;-90
2024/04/06 00:38:10;;;;;;;0.00;0.00;;;;;;;;;;6294373;22;19992;-91
2024/04/06 00:40:36;;;;;;;0.00;0.00;;;;;;;;;;6296171;22;20036;-90
2024/04/06 00:43:02;;;;;;;0.00;0.00;;;;;;;;;;6294294;22;20029;-92
2024/04/06 00:45:28;;;;;;;0.00;0.00;;;;;;;;;;6296158;22;20000;-91
2024/04/06 00:47:53;;;;;;;0.00;0.00;;;;;;;;;;6294418;22;20000;-91
2024/04/06 00:50:20;;;;;;;0.00;0.00;;;;;;;;;;6297674;22;19984;-91
2024/04/06 00:52:46;;;;;;;0.00;0.00;;;;;;;;;;6296116;22;20015;-91
2024/04/06 00:55:12;;;;;;;0.00;0.00;;;;;;;;;;6296403;22;20008;-91
2024/04/06 00:57:41;;;;;;;0.00;0.00;;;;;;;;;;6294864;22;20015;-90
2024/04/06 01:00:08;;;;;;;0.00;0.00;;;;;;;;;;6295798;22;20008;-91
2024/04/06 01:02:38;;;;;;;0.00;0.00;;;13.50;99.90;;;;;;6294958;22;20300;-90
2024/04/06 01:05:11;;;;;;;0.00;0.00;;;;;;;;;;6295103;22;20111;-91
2024/04/06 03:36:57;;;;;;;0.00;0.00;;;;;;;;;;6366143;22;20030;-91
2024/04/06 03:39:26;;;;;;;0.00;0.00;;;;;;;;;;6339869;22;20018;-92
2024/04/06 03:41:52;;;;;;;0.00;0.00;;;;;;;;;;6302358;22;20047;-90
2024/04/06 04:04:00;;;;;;;0.00;0.00;;;;;;;;;;6327156;22;19999;-91
2024/04/06 04:06:26;;;;;;;0.00;0.00;;;;;;;;;;6303663;22;20015;-91
2024/04/06 04:08:53;;;;;;;0.00;0.00;;;;;;;;;;6302610;22;20007;-92
2024/04/06 04:11:19;;;;;;;0.00;0.00;;;;;;;;;;6303389;22;19988;-92
2024/04/06 05:18:36;;;;;;;0.00;0.00;;;;;;;;;;6310048;22;20023;-91
2024/04/06 05:21:02;;;;;;;0.00;0.00;;;;;;;;;;6283165;22;20005;-91
2024/04/06 05:23:28;;;;;;;0.00;0.00;;;;;;;;;;6280513;22;20082;-89
2024/04/06 05:25:54;;;;;;;0.00;0.00;;;;;;;;;;6253468;22;20321;-90
2024/04/06 05:28:22;;;;;;;0.00;0.00;;;13.30;99.90;;;;;;6248993;22;20062;-91
2024/04/06 05:30:48;;;;;;;0.00;0.00;;;13.20;99.90;;;;;;6249936;22;20444;-92
2024/04/06 05:33:16;;;;;;;0.00;0.00;;;13.40;99.90;;;;;;6251053;22;20050;-92
2024/04/06 05:35:42;;;;;;;0.00;0.00;;;13.40;99.90;;;;;;6249667;22;20064;-91
2024/04/06 05:38:08;;;;;;;0.00;0.00;;;;;;;;;;6249639;22;20317;-91
2024/04/06 05:40:37;;;;;;;0.00;0.00;;;13.50;99.90;;;;;;6249904;22;20046;-90
2024/04/06 05:43:04;;;;;;;0.00;0.00;;;13.60;99.90;;;;;;6250627;22;20077;-89
2024/04/06 05:45:30;;;;;;;0.00;0.00;;;;;;;;;;6248792;22;20078;-91
2024/04/06 05:48:01;;;;;;;0.00;0.00;;;;;;;;;;6250233;22;20003;-89
2024/04/06 05:50:27;;;;;;;0.00;0.00;;;;;;;;;;6248648;22;20444;-92
2024/04/06 05:52:53;;;;;;;0.00;0.00;;;;;;;;;;6250491;22;20010;-92
2024/04/06 05:55:19;;;;;;;0.00;0.00;;;;;;;;;;6249335;22;20006;-92
2024/04/06 05:57:45;;;;;;;0.00;0.00;;;;;;;;;;6277340;22;20007;-90
2024/04/06 06:00:11;;;;;;;0.00;0.00;;;13.70;99.90;;;;;;6249752;22;20214;-91
2024/04/06 06:02:37;;;;;;;0.00;0.00;;;;;;;;;;6249494;22;20011;-91
2024/04/06 06:05:05;;;;;;;0.00;0.00;;;;;;;;;;6247609;22;20004;-92
2024/04/06 06:07:31;;;;;;;0.00;0.00;;;;;;;;;;6249638;22;20318;-91
2024/04/06 06:09:57;;;;;;;0.00;0.00;;;;;;;;;;6250349;22;20083;-91
2024/04/06 06:12:24;;;;;;;0.00;0.00;;;;;;;;;;6249026;22;20502;-92
2024/04/06 06:14:50;;;;;;;0.00;0.00;;;;;;;;;;6249887;22;20022;-91
2024/04/06 06:17:17;;;;;;;0.00;0.00;;;14.00;99.90;;;;;;6258455;22;20027;-92
2024/04/06 06:19:43;;;;;;;0.00;0.00;;;;;;;;;;6275726;22;20035;-92
2024/04/06 06:22:09;;;;;;;0.00;0.00;;;;;;;;;;6274325;22;20004;-90
2024/04/06 06:24:35;;;;;;;0.00;0.00;;;;;;;;;;6274662;22;20090;-90
2024/04/06 06:27:01;;;;;;;0.00;0.00;;;;;;;;;;6275460;22;20007;-91
2024/04/06 06:29:27;;;;;;;0.00;0.00;;;;;;;;;;6274116;22;20395;-91
2024/04/06 06:31:53;;;;;;;0.00;0.00;;;;;;;;;;6275391;22;20336;-92
2024/04/06 06:34:20;;;;;;;0.00;0.00;;;;;;;;;;6274884;22;20011;-91
2024/04/06 06:36:46;;;;;;;0.00;0.00;;;;;;;;;;6275882;22;20011;-92
2024/04/06 06:39:12;;;;;;;0.00;0.00;;;;;;;;;;6274190;22;20337;-90
2024/04/06 06:41:38;;;;;;;0.00;0.00;;;;;;;;;;6274744;22;19999;-92
2024/04/06 06:44:04;;;;;;;0.00;0.00;;;;;;;;;;6274962;22;19999;-91
2024/04/06 06:46:30;;;;;;;0.00;0.00;;;;;;;;;;6273296;22;20038;-91
2024/04/06 06:48:56;;;;;;;0.00;0.00;;;;;;;;;;6274694;22;19996;-91
2024/04/06 06:51:22;;;;;;;0.00;0.00;;;;;;;;;;6273152;22;19996;-92
2024/04/06 06:53:48;;;;;;;0.00;0.00;;;;;;;;;;6273703;22;20023;-91
2024/04/06 06:56:14;;;;;;;0.00;0.00;;;;;;;;;;6273768;22;20097;-92
2024/04/06 06:58:40;;;;;;;0.00;0.00;;;;;;;;;;6274056;22;19999;-92
2024/04/06 07:01:06;;;;;;;0.00;0.00;;;;;;;;;;6270188;22;20015;-92
2024/04/06 07:03:31;;;;;;;0.00;0.00;;;;;;;;;;6272510;22;20003;-91
2024/04/06 07:05:57;;;;;;;0.00;0.00;;;;;;;;;;6273553;22;19999;-91
2024/04/06 07:08:23;;;;;;;0.00;0.00;;;;;;;;;;6273267;22;20325;-91
2024/04/06 07:10:49;;;;;;;0.00;0.00;;;;;;;;;;6273311;22;20101;-91
2024/04/06 07:13:15;;;;;;;0.00;0.00;;;;;;;;;;6295803;22;19999;-90
2024/04/06 07:15:41;;;;;;;0.00;0.00;;;;;;;;;;6301436;22;19991;-92
2024/04/06 07:18:07;;;;;;;0.00;0.00;;;;;;;;;;6297342;22;20011;-91
2024/04/06 07:20:36;;;;;;;0.00;0.00;;;;;;;;;;6276927;22;20082;-91
2024/04/06 07:23:03;;;;;;;0.00;0.00;;;;;;;;;;6277143;22;20433;-90
2024/04/06 07:25:29;;;;;;;0.00;0.00;;;;;;;;;;6275125;22;20004;-91
2024/04/06 07:27:55;;;;;;;0.00;0.00;;;;;;;;;;6276178;22;20006;-92
2024/04/06 07:30:21;;;;;;;0.00;0.00;;;;;;;;;;6275503;22;20010;-90
2024/04/06 07:32:47;;;;;;;0.00;0.00;;;;;;;;;;6275891;22;20341;-91
2024/04/06 07:35:13;;;;;;;0.00;0.00;;;;;;;;;;6276688;22;20015;-91
2024/04/06 07:37:38;;;;;;;0.00;0.00;;;;;;;;;;6274815;22;20098;-91
2024/04/06 07:40:05;;;;;;;0.00;0.00;;;;;;;;;;6275885;22;20609;-90
2024/04/06 07:42:34;;;;;;;0.00;0.00;;;;;;;;;;6273461;22;20007;-92
2024/04/06 07:45:00;;;;;;;0.00;0.00;;;;;;;;;;6275193;22;20053;-92
2024/04/06 07:47:28;;;;;;;0.00;0.00;;;;;;;;;;6275129;22;20000;-90
2024/04/06 07:49:54;;;;;;;0.00;0.00;;;;;;;;;;6277044;22;20087;-92
2024/04/06 07:52:20;;;;;;;0.00;0.00;;;;;;;;;;6276457;22;20003;-91
2024/04/06 07:54:46;;;;;;;0.00;0.00;;;;;;;;;;6277605;22;20004;-91
2024/04/06 07:57:19;;;;;;;0.00;0.00;;;;;;;;;;6276585;22;20003;-91
2024/04/06 07:59:45;;;;;;;0.00;0.00;;;;;;;;;;6276369;22;20007;-91
2024/04/06 08:02:11;;;;;;;0.00;0.00;;;;;;;;;;6276636;22;20004;-91
2024/04/06 08:04:40;;;;;;;0.00;0.00;;;;;;;;;;6275716;22;20348;-91
2024/04/06 08:07:07;;;;;;;0.00;0.00;;;;;;;;;;6275452;22;20008;-91
2024/04/06 08:09:33;;;;;;;0.00;0.00;;;;;;;;;;6274173;22;20003;-93
2024/04/06 08:11:59;;;;;;;0.00;0.00;;;18.10;99.90;;;;;;6277359;22;20490;-90
2024/04/06 08:14:25;;;;;;;0.00;0.00;;;;;;;;;;6277497;22;20012;-91
2024/04/06 08:16:50;;;;;;;0.00;0.00;;;;;;;;;;6274837;22;20011;-92
2024/04/06 08:19:16;;;;;;;0.00;0.00;;;;;;;;;;6276544;22;20014;-91
2024/04/06 08:21:53;;;;;;;0.00;0.00;;;18.40;99.90;;;;;;6276097;22;20007;-91
2024/04/06 08:24:19;;;;;;;0.00;0.00;;;;;;;;;;6276078;22;20408;-90
2024/04/06 08:26:48;;;;;;;0.00;0.00;;;;;;;;;;6276346;22;20115;-91
2024/04/06 08:29:14;;;;;;;0.00;0.00;;;;;;;;;;6275586;22;20007;-91
2024/04/06 08:31:40;;;;;;;0.00;0.00;;;;;;;;;;6273387;22;20343;-91
2024/04/06 08:34:14;;;;;;;0.00;0.00;;;;;;;;;;6277537;22;20024;-91
2024/04/06 08:36:40;;;;;;;0.00;0.00;;;;;;;;;;6275852;22;20011;-90
2024/04/06 08:39:06;;;;;;;0.00;0.00;;;;;;;;;;6276327;22;20012;-89
2024/04/06 08:41:33;;;;;;;0.00;0.00;;;;;;;;;;6275416;22;20360;-92
2024/04/06 08:44:00;;;;;;;0.00;0.00;;;18.80;99.90;;;;;;6276429;22;20091;-90
2024/04/06 08:46:26;;;;;;;0.00;0.00;;;;;;;;;;6275729;22;20004;-92
2024/04/06 08:48:52;;;;;;;0.00;0.00;;;18.80;99.90;;;;;;6277871;22;20000;-91
2024/04/06 08:51:20;;;;;;;0.00;0.00;;;18.90;99.90;;;;;;6270445;22;20445;-92
2024/04/06 08:53:46;;;;;;;0.00;0.00;;;;;;;;;;6271681;22;20007;-91
2024/04/06 09:09:10;;;;;;;0.00;0.00;;;;;;;;;;6307803;22;20020;-88
2024/04/06 09:11:41;;;;;;;0.00;0.00;;;19.00;99.90;;;;;;6281273;22;20332;-91
2024/04/06 12:34:29;;;;;;;0.00;0.00;;;;;;;;;;6342025;22;20363;-91
2024/04/06 12:37:00;;;;;;;0.00;0.00;;;24.60;95.00;;;;;;6297047;22;20037;-91
2024/04/06 12:39:26;;;;;;;0.00;0.00;;;;;;;;;;6281823;22;20007;-90
2024/04/06 12:41:52;;;;;;;0.00;0.00;;;;;;;;;;6282189;22;20035;-90
2024/04/06 12:44:19;;;;;;;0.00;0.00;;;;;;;;;;6284022;22;20003;-91
2024/04/06 12:46:45;;;;;;;0.00;0.00;;;;;;;;;;6283644;22;20003;-91
2024/04/06 12:49:11;;;;;;;0.00;0.00;;;;;;;;;;6282819;22;20008;-91
2024/04/06 12:51:37;;;;;;;0.00;0.00;;;;;;;;;;6283916;22;20622;-90
2024/04/06 12:54:03;;;;;;;0.00;0.00;;;;;;;;;;6282235;22;20376;-91
2024/04/06 12:56:32;;;;;;;0.00;0.00;;;;;;;;;;6281661;22;20000;-91
2024/04/06 12:58:58;;;;;;;0.00;0.00;;;;;;;;;;6284667;22;20003;-91
2024/04/06 13:01:24;;;;;;;0.00;0.00;;;;;;;;;;6284675;22;20003;-91
2024/04/06 13:03:50;;;;;;;0.00;0.00;;;;;;;;;;6283244;22;20014;-91
2024/04/06 13:06:16;;;;;;;0.00;0.00;;;;;;;;;;6283138;22;20458;-91
2024/04/06 13:08:42;;;;;;;0.00;0.00;;;;;;;;;;6284218;22;20090;-91
2024/04/06 13:11:08;;;;;;;0.00;0.00;;;;;;;;;;6284422;22;20090;-91
2024/04/06 13:13:34;;;;;;;0.00;0.00;;;;;;;;;;6284011;22;20436;-91
2024/04/06 13:16:00;;;;;;;0.00;0.00;;;;;;;;;;6283168;22;20352;-91
2024/04/06 13:18:26;;;;;;;0.00;0.00;;;;;;;;;;6310269;22;20447;-90
2024/04/06 13:20:53;;;;;;;0.00;0.00;;;;;;;;;;6309346;22;20011;-90
2024/04/06 13:23:19;;;;;;;0.00;0.00;;;;;;;;;;6282831;22;20012;-91
2024/04/06 13:25:45;;;;;;;0.00;0.00;;;;;;;;;;6309871;22;20341;-90
2024/04/06 13:28:11;;;;;;;0.00;0.00;;;;;;;;;;6309337;22;20002;-91
2024/04/06 13:30:37;;;;;;;0.00;0.00;;;;;;;;;;6281003;22;20000;-91
2024/04/06 13:33:04;;;;;;;0.00;0.00;;;26.20;92.90;;;;;;6288804;22;20011;-91
2024/04/06 13:35:30;;;;;;;0.00;0.00;;;;;;;;;;6307496;22;20007;-91
2024/04/06 13:37:56;;;;;;;0.00;0.00;;;;;;;;;;6306788;22;20007;-90
2024/04/06 13:40:22;;;;;;;0.00;0.00;;;;;;;;;;6325389;22;20015;-92
2024/04/06 13:42:48;;;;;;;0.00;0.00;;;;;;;;;;6332459;22;20054;-93
2024/04/06 13:45:16;;;;;;;0.00;0.00;;;;;;;;;;6330000;22;20008;-91
2024/04/06 13:47:44;;;;;;;0.00;0.00;;;;;;;;;;6312951;22;19999;-91
2024/04/06 13:50:12;;;;;;;0.00;0.00;;;;;;;;;;6312553;22;20006;-91
2024/04/06 13:52:38;;;;;;;0.00;0.00;;;;;;;;;;6313217;22;20009;-90
2024/04/06 13:55:04;;;;;;;0.00;0.00;;;;;;;;;;6313203;22;20007;-91
2024/04/06 13:57:30;;;;;;;0.00;0.00;;;;;;;;;;6312995;22;20401;-90
2024/04/06 13:59:57;;;;;;;0.00;0.00;;;;;;;;;;6311867;22;19999;-90
2024/04/06 14:02:23;;;;;;;0.00;0.00;;;;;;;;;;6312709;22;20011;-90
2024/04/06 14:04:48;;;;;;;0.00;0.00;;;;;;;;;;6312820;22;20013;-89
2024/04/06 14:07:14;;;;;;;0.00;0.00;;;;;;;;;;6308675;22;20004;-91
2024/04/06 14:09:41;;;;;;;0.00;0.00;;;;;;;;;;6307753;22;20004;-90
2024/04/06 14:12:07;;;;;;;0.00;0.00;;;;;;;;;;6309665;22;20003;-91
2024/04/06 14:14:34;;;;;;;0.00;0.00;;;26.70;91.50;;;;;;6311343;22;20011;-90
2024/04/06 14:17:03;;;;;;;0.00;0.00;;;;;;;;;;6310826;22;20378;-91
2024/04/06 14:19:29;;;;;;;0.00;0.00;;;;;;;;;;6313801;22;20003;-90
2024/04/06 14:21:55;;;;;;;0.00;0.00;;;;;;;;;;6312756;22;20014;-91
2024/04/06 14:24:22;;;;;;;0.00;0.00;;;;;;;;;;6312866;22;20406;-90
2024/04/06 14:26:52;;;;;;;0.00;0.00;;;26.40;92.10;;;;;;6311514;22;20003;-91
2024/04/06 14:29:18;;;;;;;0.00;0.00;;;;;;;;;;6310779;22;20002;-90
2024/04/06 14:31:45;;;;;;;0.00;0.00;;;;;;;;;;6312779;22;19995;-91
2024/04/06 14:34:11;;;;;;;0.00;0.00;;;;;;;;;;6313587;22;20053;-91
2024/04/06 14:36:37;;;;;;;0.00;0.00;;;;;;;;;;6312982;22;19996;-90
2024/04/06 14:39:03;;;;;;;0.00;0.00;;;;;;;;;;6314416;22;19999;-92
2024/04/06 14:41:29;;;;;;;0.00;0.00;;;;;;;;;;6285429;22;20007;-91
2024/04/06 14:43:55;;;;;;;0.00;0.00;;;;;;;;;;6288318;22;20007;-91
2024/04/06 14:46:21;;;;;;;0.00;0.00;;;;;;;;;;6284600;22;20053;-91
2024/04/06 14:48:47;;;;;;;0.00;0.00;;;;;;;;;;6286931;22;20003;-92
2024/04/06 14:51:14;;;;;;;0.00;0.00;;;;;;;;;;6285962;22;19999;-91
2024/04/06 14:53:40;;;;;;;0.00;0.00;;;;;;;;;;6276607;22;20007;-90
2024/04/06 14:56:06;;;;;;;0.00;0.00;;;;;;;;;;6282443;22;20347;-90
2024/04/06 14:58:32;;;;;;;0.00;0.00;;;;;;;;;;6281201;22;20019;-90
2024/04/06 15:00:58;;;;;;;0.00;0.00;;;;;;;;;;6282670;22;20003;-91
2024/04/06 15:03:24;;;;;;;0.00;0.00;;;;;;;;;;6282063;22;20034;-88
2024/04/06 15:05:50;;;;;;;0.00;0.00;;;;;;;;;;6280454;22;19999;-91
2024/04/06 15:08:17;;;;;;;0.00;0.00;;;;;;;;;;6280321;22;20087;-91
2024/04/06 15:10:43;;;;;;;0.00;0.00;;;;;;;;;;6281135;22;20064;-90
2024/04/06 15:13:09;;;;;;;0.00;0.00;;;;;;;;;;6279148;22;20007;-89
2024/04/06 15:15:36;;;;;;;0.00;0.00;;;25.70;89.70;;;;;;6280558;22;20000;-90
2024/04/06 15:18:03;;;;;;;0.00;0.00;;;25.60;89.60;;;;;;6281560;22;20056;-90
2024/04/06 15:20:29;;;;;;;0.00;0.00;;;;;;;;;;6281366;22;20027;-90
2024/04/06 15:22:55;;;;;;;0.00;0.00;;;;;;;;;;6279099;22;20509;-90
2024/04/06 15:25:21;;;;;;;0.00;0.00;;;;;;;;;;6281386;22;20007;-90
2024/04/06 15:27:47;;;;;;;0.00;0.00;;;;;;;;;;6281567;22;20057;-90
2024/04/06 15:30:13;;;;;;;0.00;0.00;;;;;;;;;;6281734;22;20003;-90
2024/04/06 15:32:39;;;;;;;0.00;0.00;;;;;;;;;;6284327;22;20454;-90
2024/04/06 15:35:05;;;;;;;0.00;0.00;;;;;;;;;;6307156;22;20501;-90
2024/04/06 15:37:31;;;;;;;0.00;0.00;;;;;;;;;;6306980;22;20082;-90
2024/04/06 15:39:57;;;;;;;0.00;0.00;;;;;;;;;;6307271;22;20010;-91
2024/04/06 15:42:23;;;;;;;0.00;0.00;;;;;;;;;;6305460;22;20458;-90
2024/04/06 15:44:50;;;;;;;0.00;0.00;;;25.30;90.00;;;;;;6305485;22;20003;-87
2024/04/06 15:47:16;;;;;;;0.00;0.00;;;;;;;;;;6306695;22;19999;-89
2024/04/06 15:49:42;;;;;;;0.00;0.00;;;;;;;;;;6301284;22;20014;-89
2024/04/06 15:52:08;;;;;;;0.00;0.00;;;;;;;;;;6305980;22;20082;-91
2024/04/06 15:54:34;;;;;;;0.00;0.00;;;;;;;;;;6307914;22;20010;-90
2024/04/06 15:57:03;;;;;;;0.00;0.00;;;;;;;;;;6304364;22;20125;-89
2024/04/06 15:59:29;;;;;;;0.00;0.00;;;;;;;;;;6307936;22;20095;-90
2024/04/06 16:01:55;;;;;;;0.00;0.00;;;;;;;;;;6309515;22;19999;-90
2024/04/06 16:04:22;;;;;;;0.00;0.00;;;;;;;;;;6305629;22;20324;-90
2024/04/06 16:06:48;;;;;;;0.00;0.00;;;;;;;;;;6307209;22;20501;-89
2024/04/06 16:09:14;;;;;;;0.00;0.00;;;;;;;;;;6304517;22;19996;-89
2024/04/06 16:11:40;;;;;;;0.00;0.00;;;;;;;;;;6303988;22;20079;-90
2024/04/06 16:14:06;;;;;;;0.00;0.00;;;;;;;;;;6304621;22;19995;-90
2024/04/06 16:16:32;;;;;;;0.00;0.00;;;;;;;;;;6306984;22;20080;-90
2024/04/06 16:18:58;;;;;;;0.00;0.00;;;;;;;;;;6305503;22;20424;-90
2024/04/06 16:21:25;;;;;;;0.00;0.00;;;;;;;;;;6305667;22;20484;-89
2024/04/06 16:23:51;;;;;;;0.00;0.00;;;;;;;;;;6305748;22;20003;-89
2024/04/06 16:26:17;;;;;;;0.00;0.00;;;;;;;;;;6305220;22;20496;-89
2024/04/06 16:28:43;;;;;;;0.00;0.00;;;;;;;;;;6304550;22;20038;-89
2024/04/06 16:31:09;;;;;;;0.00;0.00;;;;;;;;;;6304377;22;20007;-88
2024/04/06 16:33:35;;;;;;;0.00;0.00;;;;;;;;;;6304103;22;20018;-90
2024/04/06 16:36:02;;;;;;;0.00;0.00;;;;;;;;;;6304073;22;20016;-90
2024/04/06 16:38:28;;;;;;;0.00;0.00;;;;;;;;;;6303466;22;20003;-88
2024/04/06 16:40:54;;;;;;;0.00;0.00;;;;;;;;;;6304350;22;20025;-89
2024/04/06 16:43:20;;;;;;;0.00;0.00;;;;;;;;;;6304482;22;20003;-89
2024/04/06 16:45:46;;;;;;;0.00;0.00;;;;;;;;;;6304046;22;19999;-90
2024/04/06 16:48:12;;;;;;;0.00;0.00;;;;;;;;;;6307983;22;20014;-90
2024/04/06 16:50:38;;;;;;;0.00;0.00;;;;;;;;;;6331054;22;20015;-91
2024/04/06 16:53:05;;;;;;;0.00;0.00;;;;;;;;;;6329242;22;20007;-90
2024/04/06 16:55:31;;;;;;;0.00;0.00;;;;;;;;;;6308943;22;20002;-90
2024/04/06 16:57:57;;;;;;;0.00;0.00;;;;;;;;;;6307029;22;20011;-91
2024/04/06 17:00:23;;;;;;;0.00;0.00;;;;;;;;;;6305531;22;20007;-90
2024/04/06 17:02:49;;;;;;;0.00;0.00;;;;;;;;;;6305760;22;20196;-90
2024/04/06 17:05:15;;;;;;;0.00;0.00;;;;;;;;;;6306195;22;20003;-90
2024/04/06 17:07:41;;;;;;;0.00;0.00;;;;;;;;;;6306787;22;20431;-90
2024/04/06 17:10:08;;;;;;;0.00;0.00;;;;;;;;;;6307482;22;19999;-91
2024/04/06 17:12:34;;;;;;;0.00;0.00;;;;;;;;;;6307059;22;20340;-90
2024/04/06 17:15:01;;;;;;;0.00;0.00;;;;;;;;;;6306819;22;20033;-91
2024/04/06 17:17:27;;;;;;;0.00;0.00;;;;;;;;;;6306350;22;20347;-90
2024/04/06 17:19:53;;;;;;;0.00;0.00;;;;;;;;;;6306829;22;20415;-90
2024/04/06 17:22:19;;;;;;;0.00;0.00;;;;;;;;;;6304605;22;20390;-91
2024/04/06 17:24:45;;;;;;;0.00;0.00;;;;;;;;;;6306575;22;19999;-90
2024/04/06 17:27:12;;;;;;;0.00;0.00;;;;;;;;;;6301778;22;20018;-90
2024/04/06 17:29:38;;;;;;;0.00;0.00;;;;;;;;;;6306757;22;19999;-89
2024/04/06 17:32:04;;;;;;;0.00;0.00;;;;;;;;;;6308928;22;20007;-91
2024/04/06 17:34:31;;;;;;;0.00;0.00;;;;;;;;;;6308687;22;20093;-91
2024/04/06 17:36:57;;;;;;;0.00;0.00;;;;;;;;;;6308678;22;20007;-90
2024/04/06 17:39:23;;;;;;;0.00;0.00;;;;;;;;;;6308892;22;20485;-89
2024/04/06 17:41:49;;;;;;;0.00;0.00;;;;;;;;;;6308325;22;20011;-90
2024/04/06 17:44:16;;;;;;;0.00;0.00;;;;;;;;;;6308710;22;20010;-90
2024/04/06 17:46:42;;;;;;;0.00;0.00;;;;;;;;;;6308064;22;20057;-90
2024/04/06 17:49:08;;;;;;;0.00;0.00;;;;;;;;;;6308778;22;20030;-89
2024/04/06 17:51:34;;;;;;;0.00;0.00;;;;;;;;;;6306938;22;19999;-91
2024/04/06 17:54:00;;;;;;;0.00;0.00;;;;;;;;;;6309343;22;20525;-90
2024/04/06 17:56:26;;;;;;;0.00;0.00;;;;;;;;;;6308280;22;19999;-91
2024/04/06 17:58:52;;;;;;;0.00;0.00;;;;;;;;;;6306344;22;20018;-89
2024/04/06 18:01:18;;;;;;;0.00;0.00;;;;;;;;;;6300304;22;19999;-89
2024/04/06 18:03:45;;;;;;;0.00;0.00;;;;;;;;;;6302128;22;20031;-91
2024/04/06 18:06:11;;;;;;;0.00;0.00;;;;;;;;;;6307076;22;20432;-90
2024/04/06 18:08:37;;;;;;;0.00;0.00;;;;;;;;;;6308274;22;20003;-90
2024/04/06 18:11:04;;;;;;;0.00;0.00;;;;;;;;;;6309189;22;19991;-89
2024/04/06 18:13:30;;;;;;;0.00;0.00;;;;;;;;;;6309033;22;20424;-90
2024/04/06 18:15:58;;;;;;;0.00;0.00;;;21.00;93.50;;;;;;6307797;22;20374;-89
2024/04/06 18:18:24;;;;;;;0.00;0.00;;;;;;;;;;6308128;22;20082;-90
2024/04/06 18:20:50;;;;;;;0.00;0.00;;;;;;;;;;6307153;22;20086;-89
2024/04/06 18:23:17;;;;;;;0.00;0.00;;;;;;;;;;6306569;22;20003;-90
2024/04/06 18:25:43;;;;;;;0.00;0.00;;;;;;;;;;6305873;22;20007;-90
2024/04/06 18:28:09;;;;;;;0.00;0.00;;;;;;;;;;6308233;22;20003;-90
2024/04/06 18:30:36;;;;;;;0.00;0.00;;;;;;;;;;6308309;22;20367;-90
2024/04/06 18:33:03;;;;;;;0.00;0.00;;;;;;;;;;6308500;22;20086;-90
2024/04/06 18:35:29;;;;;;;0.00;0.00;;;;;;;;;;6309084;22;20325;-89
2024/04/06 18:37:58;;;;;;;0.00;0.00;;;;;;;;;;6307318;22;20042;-91
2024/04/06 18:40:24;;;;;;;0.00;0.00;;;;;;;;;;6306153;22;20007;-90
2024/04/06 18:42:50;;;;;;;0.00;0.00;;;;;;;;;;6306175;22;20459;-91
2024/04/06 18:45:17;;;;;;;0.00;0.00;;;;;;;;;;6306085;22;20003;-90
2024/04/06 19:31:46;;;;;;;0.00;0.00;;;;;;;;;;6306727;22;20364;-90
2024/04/06 19:34:12;;;;;;;0.00;0.00;;;;;;;;;;6279875;22;20007;-90
2024/04/06 19:36:38;;;;;;;0.00;0.00;;;;;;;;;;6294680;22;20019;-90
2024/04/06 19:39:07;;;;;;;0.00;0.00;;;;;;;;;;6250083;22;20427;-88
2024/04/06 19:41:34;;;;;;;0.00;0.00;;;;;;;;;;6249201;22;20005;-89
2024/04/06 19:44:00;;;;;;;0.00;0.00;;;;;;;;;;6277591;22;20000;-89
2024/04/06 19:46:27;;;;;;;0.00;0.00;;;;;;;;;;6276710;22;20018;-89
2024/04/06 19:48:53;;;;;;;0.00;0.00;;;;;;;;;;6250108;22;20000;-89
2024/04/06 19:51:19;;;;;;;0.00;0.00;;;;;;;;;;6276460;22;20085;-89
2024/04/06 19:53:45;;;;;;;0.00;0.00;;;;;;;;;;6277438;22;19999;-89
2024/04/06 19:56:12;;;;;;;0.00;0.00;;;;;;;;;;6261681;22;19984;-90
2024/04/06 19:58:38;;;;;;;0.00;0.00;;;;;;;;;;6303722;22;19988;-88
2024/04/06 20:01:04;;;;;;;0.00;0.00;;;;;;;;;;6274805;22;20004;-88
2024/04/06 20:03:30;;;;;;;0.00;0.00;;;;;;;;;;6279043;22;20060;-90
2024/04/06 20:05:56;;;;;;;0.00;0.00;;;;;;;;;;6252163;22;19999;-90
2024/04/06 20:08:22;;;;;;;0.00;0.00;;;;;;;;;;6251540;22;20003;-90
2024/04/06 20:10:48;;;;;;;0.00;0.00;;;;;;;;;;6251376;22;20085;-91
2024/04/06 20:13:16;;;;;;;0.00;0.00;;;;;;;;;;6278616;22;20376;-90
2024/04/06 20:15:42;;;;;;;0.00;0.00;;;;;;;;;;6251773;22;20424;-90
2024/04/06 20:18:08;;;;;;;0.00;0.00;;;;;;;;;;6251987;22;19999;-91
2024/04/06 20:20:34;;;;;;;0.00;0.00;;;;;;;;;;6252392;22;20031;-89
2024/04/06 20:26:04;;;;;;;0.00;0.00;;;18.80;95.00;;;;;;6279877;22;20014;-89
2024/04/06 20:28:30;;;;;;;0.00;0.00;;;18.90;94.40;;;;;;6251166;22;20004;-90
2024/04/06 20:31:00;;;;;;;0.00;0.00;;;19.20;94.90;;;;;;6266646;22;20455;-90
2024/04/06 20:33:27;;;;;;;0.00;0.00;;;18.90;95.00;;;;;;6277270;22;20003;-89
2024/04/06 20:35:53;;;;;;;0.00;0.00;;;18.80;94.50;;;;;;6278118;22;20398;-90
2024/04/06 20:38:19;;;;;;;0.00;0.00;;;;;;;;;;6279079;22;20007;-90
2024/04/06 20:40:45;;;;;;;0.00;0.00;;;;;;;;;;6277525;22;20089;-90
2024/04/06 20:43:11;;;;;;;0.00;0.00;;;;;;;;;;6276954;22;20030;-90
2024/04/06 20:45:37;;;;;;;0.00;0.00;;;;;;;;;;6278759;22;19999;-90
2024/04/06 20:48:07;;;;;;;0.00;0.00;;;18.80;94.60;;;;;;6277468;22;20011;-89
2024/04/06 20:50:32;;;;;;;;;;;18.80;94.60;;;;;;6277911;22;20008;-90
2024/04/06 20:52:58;;;;;;;0.00;0.00;;;18.70;94.60;;;;;;6277580;22;19907;-91
2024/04/06 20:55:24;;;;;;;0.00;0.00;;;;;;;;;;6279783;22;20039;-90
2024/04/06 20:57:50;;;;;;;0.00;0.00;;;;;;;;;;6277103;22;20010;-90
2024/04/06 21:00:16;;;;;;;0.00;0.00;;;;;;;;;;6277669;22;20088;-90
2024/04/06 21:02:42;;;;;;;0.00;0.00;;;;;;;;;;6278109;22;19996;-90
2024/04/06 21:05:09;;;;;;;0.00;0.00;;;;;;;;;;6281292;22;19996;-90
2024/04/06 21:07:39;;;;;;;0.00;0.00;;;;;;;;;;6279399;22;20444;-90
2024/04/06 21:10:05;;;;;;;0.00;0.00;;;;;;;;;;6279773;22;20079;-90
2024/04/06 21:12:31;;;;;;;0.00;0.00;;;;;;;;;;6279810;22;20046;-90
2024/04/06 21:15:06;;;;;;;0.00;0.00;;;;;;;;;;6280150;22;20012;-90
2024/04/06 21:17:32;;;;;;;0.00;0.00;;;;;;;;;;6279815;22;20003;-90
2024/04/06 21:19:58;;;;;;;0.00;0.00;;;;;;;;;;6279682;22;20010;-90
2024/04/06 21:22:25;;;;;;;0.00;0.00;;;;;;;;;;6279416;22;20011;-90
2024/04/06 21:24:51;;;;;;;0.00;0.00;;;;;;;;;;6279342;22;20003;-89
2024/04/06 21:27:17;;;;;;;0.00;0.00;;;;;;;;;;6278361;22;20011;-90
2024/04/06 21:29:43;;;;;;;0.00;0.00;;;;;;;;;;6279717;22;20059;-90
2024/04/06 21:32:09;;;;;;;0.00;0.00;;;;;;;;;;6258632;22;20007;-90
2024/04/06 21:34:35;;;;;;;0.00;0.00;;;;;;;;;;6254537;22;20053;-90
2024/04/06 21:37:02;;;;;;;0.00;0.00;;;;;;;;;;6252485;22;20408;-90
2024/04/06 21:39:28;;;;;;;0.00;0.00;;;;;;;;;;6254071;22;20049;-90
2024/04/06 21:41:54;;;;;;;0.00;0.00;;;;;;;;;;6253212;22;20012;-91
2024/04/06 21:44:20;;;;;;;0.00;0.00;;;;;;;;;;6253527;22;20010;-90
2024/04/06 21:46:46;;;;;;;0.00;0.00;;;;;;;;;;6253204;22;20374;-89
2024/04/06 21:49:12;;;;;;;0.00;0.00;;;;;;;;;;6279946;22;20000;-90
2024/04/06 21:51:38;;;;;;;0.00;0.00;;;;;;;;;;6279639;22;20452;-90
2024/04/06 21:54:05;;;;;;;0.00;0.00;;;;;;;;;;6280207;22;20058;-90
2024/04/06 21:56:31;;;;;;;0.00;0.00;;;;;;;;;;6280078;22;20079;-90
2024/04/06 21:58:57;;;;;;;0.00;0.00;;;;;;;;;;6280032;22;20022;-91
2024/04/06 22:01:24;;;;;;;0.00;0.00;;;;;;;;;;6252556;22;20004;-90
2024/04/06 22:03:50;;;;;;;0.00;0.00;;;;;;;;;;6251958;22;20383;-91
2024/04/06 22:06:16;;;;;;;0.00;0.00;;;;;;;;;;6252349;22;19999;-90
2024/04/06 22:08:42;;;;;;;0.00;0.00;;;18.50;93.60;;;;;;6252966;22;20432;-89
2024/04/06 22:11:11;;;;;;;0.00;0.00;;;;;;;;;;6252760;22;20341;-90
2024/04/06 22:13:37;;;;;;;0.00;0.00;;;;;;;;;;6251964;22;20467;-91
2024/04/06 22:16:03;;;;;;;0.00;0.00;;;;;;;;;;6250942;22;20004;-89
2024/04/06 22:18:29;;;;;;;0.00;0.00;;;;;;;;;;6251638;22;20017;-90
2024/04/06 22:20:55;;;;;;;0.00;0.00;;;;;;;;;;6252788;22;20035;-90
2024/04/06 22:23:21;;;;;;;0.00;0.00;;;;;;;;;;6251909;22;20412;-90
2024/04/06 22:25:48;;;;;;;0.00;0.00;;;;;;;;;;6252345;22;20420;-90
2024/04/06 22:28:14;;;;;;;0.00;0.00;;;;;;;;;;6251910;22;20007;-90
2024/04/06 22:30:40;;;;;;;0.00;0.00;;;;;;;;;;6278282;22;20011;-90
2024/04/06 22:33:06;;;;;;;0.00;0.00;;;;;;;;;;6251624;22;20008;-90
2024/04/06 22:35:32;;;;;;;0.00;0.00;;;;;;;;;;6252113;22;20004;-90
2024/04/06 22:37:58;;;;;;;0.00;0.00;;;;;;;;;;6252657;22;20433;-90
2024/04/06 22:40:24;;;;;;;0.00;0.00;;;;;;;;;;6252748;22;20011;-91
2024/04/06 22:42:50;;;;;;;0.00;0.00;;;;;;;;;;6252187;22;20019;-90